Time;durP1;ratioP1;P1;durP2;ratioP2;P2;SDS_P1;SDS_P2;PMS_P1;PMS_P2;Temp;Humidity;BMP_temperature;BMP_pressure;BME280_temperature;BME280_humidity;BME280_pressure;Samples;Min_cycle;Max_cycle;Signal;HPM_P1;HPM_P2
2021/08/07 00:01:51;;;;;;;4.45;1.35;;;;;;;10.76;83.78;90183.03;4957838;28;20038;-86
2021/08/07 00:04:26;;;;;;;5.60;1.17;;;;;;;10.79;83.45;90164.09;4976140;28;20031;-87
2021/08/07 00:07:08;;;;;;;3.50;1.38;;;;;;;10.82;82.82;90158.22;4960433;28;20054;-87
2021/08/07 00:09:42;;;;;;;3.05;1.10;;;;;;;10.92;82.51;90162.84;4962111;28;20533;-85
2021/08/07 00:12:21;;;;;;;4.70;1.20;;;;;;;10.98;82.62;90171.88;4961180;28;20035;-87
2021/08/07 00:15:02;;;;;;;6.00;2.08;;;;;;;10.91;82.63;90171.75;4946678;28;20045;-88
2021/08/07 00:17:42;;;;;;;3.03;1.00;;;;;;;10.95;82.50;90177.03;4946570;28;20515;-87
2021/08/07 00:20:17;;;;;;;3.53;1.10;;;;;;;10.97;82.60;90167.75;4946159;28;20113;-88
2021/08/07 00:22:51;;;;;;;4.30;1.30;;;;;;;10.98;82.71;90177.06;4960863;28;20085;-87
2021/08/07 00:25:29;;;;;;;2.20;1.17;;;;;;;11.05;82.68;90178.31;4958472;28;20027;-87
2021/08/07 00:28:08;;;;;;;7.60;1.05;;;;;;;11.08;82.35;90169.78;4942913;29;20031;-88
2021/08/07 00:30:48;;;;;;;3.97;1.15;;;;;;;11.07;82.60;90158.59;4943278;29;20054;-86
2021/08/07 00:33:26;;;;;;;2.28;1.30;;;;;;;11.07;83.42;90148.19;4942259;29;20035;-85
2021/08/07 00:36:01;;;;;;;5.35;1.33;;;;;;;11.10;82.85;90141.53;4944221;29;20614;-87
2021/08/07 00:38:42;;;;;;;4.82;1.40;;;;;;;11.00;83.12;90129.81;4923743;29;20415;-86
2021/08/07 00:41:18;;;;;;;5.93;1.38;;;;;;;11.08;82.44;90138.50;4937014;29;20036;-85
2021/08/07 00:43:58;;;;;;;3.15;1.30;;;;;;;11.10;82.43;90134.44;4923168;29;20027;-85
2021/08/07 00:46:35;;;;;;;4.88;1.13;;;;;;;11.11;82.09;90148.25;4938683;29;20065;-85
2021/08/07 00:49:09;;;;;;;4.95;1.30;;;;;;;11.07;82.38;90145.56;4955834;28;20034;-86
2021/08/07 00:51:48;;;;;;;3.80;1.00;;;;;;;11.04;82.48;90154.09;4942342;28;20403;-86
2021/08/07 00:54:29;;;;;;;4.55;1.20;;;;;;;11.11;83.38;90158.66;4941811;28;20047;-85
2021/08/07 00:57:07;;;;;;;3.20;1.00;;;;;;;10.97;84.13;90144.28;4959020;28;20030;-86
2021/08/07 00:59:46;;;;;;;1.55;0.90;;;;;;;10.95;84.10;90151.72;4958214;28;20050;-85
2021/08/07 01:02:26;;;;;;;5.88;1.38;;;;;;;10.97;84.04;90148.75;4957631;28;20035;-86
2021/08/07 01:05:24;;;;;;;3.78;1.30;;;;;;;10.98;84.40;90135.38;4942002;28;20082;-85
2021/08/07 01:08:20;;;;;;;6.63;1.40;;;;;;;11.05;84.31;90139.94;4973705;28;20051;-85
2021/08/07 01:11:17;;;;;;;3.53;1.27;;;;;;;11.07;84.65;90137.00;4957860;28;20027;-85
2021/08/07 01:13:57;;;;;;;3.95;1.40;;;;;;;10.99;84.78;90123.84;4975214;28;20037;-86
2021/08/07 01:16:35;;;;;;;2.75;1.20;;;;;;;11.08;84.28;90122.84;4959107;28;20441;-85
2021/08/07 01:19:07;;;;;;;5.13;1.17;;;;;;;11.09;84.50;90135.53;4942553;28;20100;-85
2021/08/07 01:21:46;;;;;;;6.72;1.40;;;;;;;11.30;83.23;90148.16;4957953;28;20511;-86
2021/08/07 01:24:31;;;;;;;5.05;2.63;;;;;;;11.21;84.28;90134.63;4942699;28;20023;-86
2021/08/07 01:27:26;;;;;;;3.60;1.40;;;;;;;11.22;84.62;90141.31;4954704;28;20035;-86
2021/08/07 01:30:02;;;;;;;;;;;;;;;11.14;84.56;90142.31;4939681;29;20024;-85
2021/08/07 01:32:34;;;;;;;2.80;1.30;;;;;;;11.07;84.92;90132.53;4923252;29;19914;-86
2021/08/07 01:35:13;;;;;;;3.90;1.27;;;;;;;11.05;85.29;90118.34;4938742;29;20487;-86
2021/08/07 01:37:53;;;;;;;4.78;1.40;;;;;;;11.04;84.92;90116.84;4940224;29;20034;-86
2021/08/07 01:40:28;;;;;;;2.63;1.10;;;;;;;11.09;84.90;90119.13;4908659;29;20038;-86
2021/08/07 01:43:03;;;;;;;3.85;1.30;;;;;;;11.29;84.03;90117.97;4940841;29;20359;-85
2021/08/07 01:45:40;;;;;;;3.75;1.30;;;;;;;11.21;84.79;90111.13;4940026;29;20047;-85
2021/08/07 01:48:35;;;;;;;2.42;1.33;;;;;;;11.13;85.18;90117.34;4924685;29;20106;-87
2021/08/07 01:51:32;;;;;;;4.20;1.30;;;;;;;11.19;85.02;90113.34;4943012;29;20027;-87
2021/08/07 01:54:09;;;;;;;5.88;1.40;;;;;;;11.19;85.27;90124.50;4939991;29;20515;-86
2021/08/07 01:56:44;;;;;;;3.30;1.38;;;;;;;11.14;85.27;90117.00;4923299;29;20039;-86
2021/08/07 01:59:23;;;;;;;2.53;1.10;;;;;;;11.18;85.24;90119.66;4939712;29;20023;-86
2021/08/07 02:01:58;;;;;;;5.03;1.75;;;;;;;11.20;84.70;90122.66;4908672;29;20027;-87
2021/08/07 02:04:37;;;;;;;7.10;1.25;;;;;;;11.19;84.57;90123.75;4909266;29;20027;-86
2021/08/07 02:07:14;;;;;;;2.63;1.30;;;;;;;11.22;84.20;90115.25;4940261;29;20035;-86
2021/08/07 02:09:54;;;;;;;5.03;1.40;;;;;;;11.22;84.25;90110.03;4924850;29;20059;-86
2021/08/07 02:12:34;;;;;;;6.95;1.40;;;;;;;11.21;84.33;90105.94;4909373;29;20062;-86
2021/08/07 02:15:13;;;;;;;2.92;1.45;;;;;;;11.28;83.91;90100.81;4924130;28;20583;-86
2021/08/07 02:17:49;;;;;;;3.65;1.10;;;;;;;11.40;83.53;90105.06;4924249;29;20121;-85
2021/08/07 02:20:28;;;;;;;4.72;1.83;;;;;;;11.39;83.60;90106.19;4940204;29;20023;-86
2021/08/07 02:23:05;;;;;;;4.43;1.40;;;;;;;11.25;83.96;90106.72;4925637;29;20040;-86
2021/08/07 02:25:44;;;;;;;5.53;1.55;;;;;;;11.30;84.10;90106.41;4945373;28;20061;-87
2021/08/07 02:28:24;;;;;;;2.72;1.20;;;;;;;11.30;84.03;90103.06;4960304;28;20034;-87
2021/08/07 02:31:03;;;;;;;3.90;1.40;;;;;;;11.11;84.41;90096.84;4960410;28;20109;-87
2021/08/07 02:33:38;;;;;;;6.00;1.70;;;;;;;11.21;84.40;90104.06;4959385;28;20106;-87
2021/08/07 02:36:18;;;;;;;3.63;1.48;;;;;;;11.17;84.66;90089.47;4931413;28;20706;-87
2021/08/07 02:39:04;;;;;;;9.45;1.50;;;;;;;11.08;85.25;90086.34;4966315;28;20071;-87
2021/08/07 02:41:42;;;;;;;3.00;1.35;;;;;;;11.07;85.10;90090.06;4961874;28;20447;-87
2021/08/07 02:44:19;;;;;;;3.25;1.40;;;;;;;11.02;85.91;90085.88;4966369;28;20019;-86
2021/08/07 02:46:55;;;;;;;5.10;1.38;;;;;;;11.04;85.69;90090.75;4976753;28;20031;-85
2021/08/07 02:49:36;;;;;;;2.25;1.50;;;;;;;11.04;85.77;90090.75;4955262;28;20037;-85
2021/08/07 02:52:12;;;;;;;4.25;1.50;;;;;;;11.14;85.50;90098.00;4955333;28;20050;-86
2021/08/07 02:54:53;;;;;;;6.75;1.40;;;;;;;11.11;85.59;90091.63;4954998;28;20114;-84
2021/08/07 02:57:25;;;;;;;3.35;1.25;;;;;;;11.25;84.82;90075.44;4956213;28;20447;-85
2021/08/07 03:00:04;;;;;;;2.80;1.55;;;;;;;11.15;85.12;90091.66;4954724;28;20057;-85
2021/08/07 03:02:39;;;;;;;5.20;1.70;;;;;;;11.12;85.24;90102.78;4955576;28;20023;-86
2021/08/07 03:05:23;;;;;;;5.32;1.88;;;;;;;11.13;85.51;90099.06;4939422;28;20034;-85
2021/08/07 03:07:59;;;;;;;3.03;1.45;;;;;;;11.16;85.32;90096.53;4939909;28;20487;-85
2021/08/07 03:10:38;;;;;;;4.13;1.40;;;;;;;11.17;85.47;90089.47;4954847;28;20031;-85
2021/08/07 03:13:14;;;;;;;4.95;1.55;;;;;;;11.10;85.83;90094.59;4955248;28;20031;-85
2021/08/07 03:15:51;;;;;;;3.85;1.90;;;;;;;11.14;85.64;90080.50;4955175;28;20035;-85
2021/08/07 03:18:29;;;;;;;4.70;1.55;;;;;;;11.17;85.85;90076.44;4955823;28;20376;-85
2021/08/07 03:21:11;;;;;;;6.72;1.50;;;;;;;11.24;85.67;90079.16;4940086;28;20035;-85
2021/08/07 03:23:50;;;;;;;2.85;1.27;;;;;;;11.19;85.63;90066.41;4989801;28;20043;-85
2021/08/07 03:26:30;;;;;;;2.53;1.40;;;;;;;11.18;85.62;90070.84;4936376;29;20027;-85
2021/08/07 03:29:04;;;;;;;3.42;1.48;;;;;;;11.13;86.17;90067.78;4939871;29;20034;-87
2021/08/07 03:31:41;;;;;;;5.88;1.33;;;;;;;11.29;85.42;90055.34;4939650;29;20027;-85
2021/08/07 03:34:16;;;;;;;4.75;1.38;;;;;;;11.17;85.79;90052.97;4925099;29;20031;-86
2021/08/07 03:36:56;;;;;;;2.97;1.60;;;;;;;11.16;85.84;90059.28;4939910;29;20086;-85
2021/08/07 03:39:31;;;;;;;4.03;1.30;;;;;;;11.11;86.07;90057.72;4924906;29;20031;-85
2021/08/07 03:42:06;;;;;;;6.40;1.83;;;;;;;11.22;85.60;90050.03;4909022;29;20035;-85
2021/08/07 03:44:40;;;;;;;5.78;1.38;;;;;;;11.12;85.57;90053.25;4923919;29;20031;-85
2021/08/07 03:47:16;;;;;;;5.53;1.75;;;;;;;11.12;85.65;90048.78;4939994;29;20019;-85
2021/08/07 03:49:54;;;;;;;5.47;1.70;;;;;;;11.12;85.69;90040.22;4946496;28;20027;-86
2021/08/07 03:52:29;;;;;;;4.13;1.35;;;;;;;11.09;86.03;90040.91;4959437;28;20049;-85
2021/08/07 03:55:11;;;;;;;6.10;1.50;;;;;;;11.16;85.78;90048.84;4944045;28;20062;-85
2021/08/07 03:57:59;;;;;;;4.05;1.50;;;;;;;11.09;86.01;90041.66;4942906;28;20039;-85
2021/08/07 04:00:41;;;;;;;4.32;1.98;;;;;;;11.07;86.23;90032.72;4944204;28;20250;-86
2021/08/07 04:03:19;;;;;;;7.25;2.60;;;;;;;11.07;86.20;90032.72;4959644;28;20043;-85
2021/08/07 04:05:57;;;;;;;8.25;1.80;;;;;;;11.07;86.47;90038.69;4960132;28;20031;-85
2021/08/07 04:08:37;;;;;;;5.93;1.52;;;;;;;11.14;86.36;90033.56;5002040;23;20061;-87
2021/08/07 04:11:13;;;;;;;6.82;1.45;;;;;;;11.08;86.34;90026.38;4997655;28;20068;-87
2021/08/07 04:13:57;;;;;;;2.35;1.50;;;;;;;11.13;86.19;90033.91;4981151;28;20557;-87
2021/08/07 04:16:38;;;;;;;5.75;1.73;;;;;;;11.14;86.04;90038.03;4997983;28;20073;-88
2021/08/07 04:19:16;;;;;;;4.82;1.50;;;;;;;11.09;86.23;90036.44;4995967;28;20029;-86
2021/08/07 04:21:56;;;;;;;6.95;1.70;;;;;;;11.17;85.52;90037.31;4989828;28;20030;-87
2021/08/07 04:24:34;;;;;;;6.63;1.63;;;;;;;11.22;85.59;90040.38;4981820;28;20071;-87
2021/08/07 04:27:14;;;;;;;2.90;1.40;;;;;;;11.21;85.37;90038.13;4976683;28;20104;-87
2021/08/07 04:29:50;;;;;;;5.28;1.50;;;;;;;11.23;85.49;90046.31;4960764;28;20441;-87
2021/08/07 04:32:28;;;;;;;6.78;1.52;;;;;;;11.13;86.46;90042.50;4976734;28;20042;-87
2021/08/07 04:35:09;;;;;;;2.47;1.48;;;;;;;11.11;86.32;90034.25;4992461;28;20029;-87
2021/08/07 04:38:10;;;;;;;8.45;1.60;;;;;;;11.04;86.68;90033.41;4976326;28;20034;-87
2021/08/07 04:40:48;;;;;;;2.42;1.52;;;;;;;10.99;86.87;90024.78;4959400;28;20054;-87
2021/08/07 04:43:20;;;;;;;3.65;1.52;;;;;;;11.10;86.55;90037.97;4975927;28;20057;-87
2021/08/07 04:45:59;;;;;;;4.22;1.52;;;;;;;11.10;86.17;90040.59;4976074;28;20026;-88
2021/08/07 04:48:38;;;;;;;5.40;1.52;;;;;;;11.14;86.08;90035.41;4975969;28;20034;-87
2021/08/07 04:51:16;;;;;;;2.67;1.40;;;;;;;11.14;86.19;90035.41;4975498;28;20033;-87
2021/08/07 04:53:54;;;;;;;4.13;1.48;;;;;;;11.21;85.77;90038.13;4975636;28;20026;-87
2021/08/07 04:56:34;;;;;;;4.80;1.55;;;;;;;11.10;85.81;90034.63;4959770;28;20022;-87
2021/08/07 04:59:12;;;;;;;4.35;1.50;;;;;;;11.07;86.19;90022.28;4975979;28;20109;-87
2021/08/07 05:01:51;;;;;;;3.50;1.42;;;;;;;11.10;86.10;90026.78;4993114;28;20037;-86
2021/08/07 05:04:29;;;;;;;2.88;1.30;;;;;;;11.08;86.38;90006.28;4976198;28;20029;-88
2021/08/07 05:07:09;;;;;;;5.30;1.67;;;;;;;11.03;86.26;90014.41;4975944;28;20026;-87
2021/08/07 05:09:51;;;;;;;3.53;1.35;;;;;;;11.08;86.12;90031.59;4975854;28;20034;-88
2021/08/07 05:12:30;;;;;;;5.82;1.80;;;;;;;11.18;86.05;90033.59;4975863;28;20446;-87
2021/08/07 05:15:10;;;;;;;4.78;1.60;;;;;;;11.05;86.36;90030.44;4975746;28;20030;-88
2021/08/07 05:17:49;;;;;;;4.88;1.50;;;;;;;11.17;85.95;90053.72;4993237;28;20018;-88
2021/08/07 05:20:29;;;;;;;4.35;1.48;;;;;;;11.08;86.16;90052.47;4975200;28;20022;-87
2021/08/07 05:23:00;;;;;;;3.05;1.48;;;;;;;11.06;86.27;90026.75;4978379;28;20030;-87
2021/08/07 05:25:38;;;;;;;4.55;1.50;;;;;;;11.23;85.68;90025.47;4975371;28;20034;-87
2021/08/07 05:28:18;;;;;;;5.70;1.65;;;;;;;11.26;85.41;90014.31;4976187;28;20025;-87
2021/08/07 05:30:50;;;;;;;2.95;1.60;;;;;;;11.32;86.01;90025.97;4976338;28;20419;-88
2021/08/07 05:33:24;;;;;;;5.10;1.67;;;;;;;11.44;85.59;90033.56;4975446;28;20105;-88
2021/08/07 05:36:02;;;;;;;4.50;1.30;;;;;;;11.43;85.39;90026.84;4976191;28;20445;-88
2021/08/07 05:38:35;;;;;;;6.97;1.63;;;;;;;11.51;84.96;90016.50;4975750;28;20034;-87
2021/08/07 05:41:08;;;;;;;5.05;1.70;;;;;;;11.49;85.14;90022.84;4990866;28;20056;-87
2021/08/07 05:43:43;;;;;;;3.80;1.45;;;;;;;11.57;85.32;90038.56;4992522;28;20032;-87
2021/08/07 05:46:17;;;;;;;2.65;1.13;;;;;;;11.53;85.68;90022.88;4991184;28;20026;-87
2021/08/07 05:48:54;;;;;;;6.20;1.67;;;;;;;11.53;85.91;90027.34;4959551;28;20030;-87
2021/08/07 05:51:32;;;;;;;2.83;1.55;;;;;;;11.54;86.20;90029.59;4973687;28;20105;-88
2021/08/07 05:54:08;;;;;;;6.22;1.73;;;;;;;11.55;85.98;90027.72;4974610;28;20030;-87
2021/08/07 05:56:45;;;;;;;4.38;1.60;;;;;;;11.79;85.56;90039.56;4992431;28;20089;-87
2021/08/07 05:59:28;;;;;;;6.57;1.50;;;;;;;11.78;85.30;90036.22;4975357;28;20022;-88
2021/08/07 06:02:11;;;;;;;6.30;1.60;;;;;;;11.88;84.52;90038.22;4975779;28;20030;-88
2021/08/07 06:04:53;;;;;;;2.67;1.33;;;;;;;11.95;84.15;90043.53;4974706;28;20026;-87
2021/08/07 06:07:29;;;;;;;4.38;1.60;;;;;;;12.01;84.25;90051.78;4959799;28;20022;-88
2021/08/07 06:10:01;;;;;;;3.35;1.40;;;;;;;12.07;83.81;90032.06;4974977;28;20110;-87
2021/08/07 06:12:35;;;;;;;3.63;1.30;;;;;;;12.25;82.44;90024.41;4974472;28;20033;-87
2021/08/07 06:15:10;;;;;;;3.95;1.80;;;;;;;12.33;82.42;90030.44;4974388;28;20034;-87
2021/08/07 06:17:56;;;;;;;7.28;2.00;;;;;;;12.34;83.03;90058.09;4959301;28;20462;-87
2021/08/07 06:20:30;;;;;;;6.30;1.85;;;;;;;12.38;85.42;90059.63;4991408;28;20054;-88
2021/08/07 06:23:07;;;;;;;2.35;1.20;;;;;;;12.41;85.10;90066.75;4974274;28;20475;-88
2021/08/07 06:25:55;;;;;;;3.83;1.60;;;;;;;12.15;86.49;90066.84;4996204;28;20029;-88
2021/08/07 06:28:32;;;;;;;3.65;1.70;;;;;;;12.18;86.09;90061.66;5011475;28;20030;-88
2021/08/07 06:31:11;;;;;;;6.10;1.90;;;;;;;12.14;86.98;90044.47;4993440;28;20030;-88
2021/08/07 06:33:50;;;;;;;6.15;1.70;;;;;;;12.28;85.13;90044.59;4979096;28;20022;-88
2021/08/07 06:36:27;;;;;;;4.60;1.60;;;;;;;12.23;86.85;90059.84;4978954;28;20022;-88
2021/08/07 06:39:07;;;;;;;6.75;1.88;;;;;;;12.23;86.86;90049.41;4978746;28;20526;-89
2021/08/07 06:41:48;;;;;;;7.00;2.00;;;;;;;12.19;87.34;90020.63;4978838;28;20034;-88
2021/08/07 06:44:34;;;;;;;5.32;1.92;;;;;;;12.26;88.18;90018.09;5011400;28;20022;-88
2021/08/07 06:47:12;;;;;;;4.43;1.95;;;;;;;12.19;87.56;90010.94;4995540;28;20113;-88
2021/08/07 06:49:51;;;;;;;5.78;2.17;;;;;;;12.26;87.13;90005.03;4975137;28;20161;-87
2021/08/07 06:52:29;;;;;;;5.57;2.00;;;;;;;12.19;87.40;90015.38;4973985;28;20128;-89
2021/08/07 06:55:08;;;;;;;5.15;2.25;;;;;;;12.14;88.91;90010.50;4975368;28;20109;-89
2021/08/07 06:57:41;;;;;;;4.38;2.10;;;;;;;12.33;87.42;90020.78;4975594;28;20109;-88
2021/08/07 07:00:23;;;;;;;6.35;2.45;;;;;;;12.35;87.59;90031.59;4942732;28;20065;-89
2021/08/07 07:03:00;;;;;;;5.93;2.00;;;;;;;12.39;86.82;90024.53;4977762;28;20084;-88
2021/08/07 07:05:36;;;;;;;6.68;3.10;;;;;;;12.46;87.04;90029.09;4962893;28;20105;-88
2021/08/07 07:08:12;;;;;;;7.88;2.40;;;;;;;12.52;87.17;90032.88;4978803;28;20023;-88
2021/08/07 07:10:50;;;;;;;8.73;2.58;;;;;;;12.38;88.10;90024.91;4962788;28;20026;-89
2021/08/07 07:13:26;;;;;;;5.53;2.10;;;;;;;12.43;88.49;90014.88;4961628;28;20494;-88
2021/08/07 07:16:05;;;;;;;5.90;2.08;;;;;;;12.43;88.17;90020.09;4946411;28;20030;-88
2021/08/07 07:18:43;;;;;;;8.40;2.20;;;;;;;12.35;88.42;90028.25;4946343;28;20055;-89
2021/08/07 07:21:22;;;;;;;4.80;2.10;;;;;;;12.36;88.54;90038.31;4962423;28;20112;-88
2021/08/07 07:23:59;;;;;;;8.18;2.40;;;;;;;12.31;89.79;90043.88;4962125;28;20030;-88
2021/08/07 07:26:35;;;;;;;6.10;2.72;;;;;;;12.46;89.16;90038.78;4973666;28;20113;-88
2021/08/07 07:29:07;;;;;;;7.28;2.55;;;;;;;12.39;88.65;90021.94;4965510;28;20401;-88
2021/08/07 07:31:45;;;;;;;7.32;2.15;;;;;;;12.37;89.46;90007.75;4980794;28;20044;-89
2021/08/07 07:34:21;;;;;;;6.07;2.00;;;;;;;12.46;86.98;90008.19;4981411;28;20029;-88
2021/08/07 07:36:58;;;;;;;8.00;2.42;;;;;;;12.38;88.91;89993.56;4981228;28;20030;-88
2021/08/07 07:39:39;;;;;;;5.50;2.28;;;;;;;12.44;87.62;89989.50;4981818;28;20109;-88
2021/08/07 07:42:17;;;;;;;5.13;2.10;;;;;;;12.38;88.50;89980.50;4980994;28;20030;-88
2021/08/07 07:44:56;;;;;;;7.72;2.20;;;;;;;12.50;85.17;89974.25;4980756;28;20025;-88
2021/08/07 07:47:34;;;;;;;3.03;1.73;;;;;;;12.43;83.85;89956.63;4996877;28;20033;-88
2021/08/07 07:50:12;;;;;;;6.40;2.92;;;;;;;12.52;86.27;89972.78;4980081;28;20034;-88
2021/08/07 07:52:50;;;;;;;6.57;3.05;;;;;;;12.42;88.28;89974.19;4981668;28;20021;-88
2021/08/07 07:55:22;;;;;;;4.13;2.20;;;;;;;12.46;89.30;89981.31;5014326;28;20034;-89
2021/08/07 07:58:01;;;;;;;3.60;2.08;;;;;;;12.46;89.43;89965.63;4965158;28;20029;-88
2021/08/07 08:00:38;;;;;;;6.85;2.15;;;;;;;12.54;88.42;89985.47;4981334;28;20026;-90
2021/08/07 08:03:15;;;;;;;6.03;2.03;;;;;;;12.59;89.15;89998.22;4981780;28;20442;-88
2021/08/07 08:05:54;;;;;;;9.02;2.47;;;;;;;12.56;88.96;90006.78;4980761;28;20029;-88
2021/08/07 08:08:34;;;;;;;5.88;2.28;;;;;;;12.69;88.35;90008.00;4980065;28;20033;-88
2021/08/07 08:11:14;;;;;;;6.70;2.47;;;;;;;12.66;87.18;90008.72;4996813;28;20486;-88
2021/08/07 08:13:51;;;;;;;4.07;1.98;;;;;;;12.62;87.78;90007.94;4979964;28;20064;-88
2021/08/07 08:16:28;;;;;;;5.97;2.38;;;;;;;12.67;87.85;90002.38;4980817;28;20500;-89
2021/08/07 08:19:09;;;;;;;4.45;2.10;;;;;;;12.70;87.30;89990.44;4964745;28;20036;-88
2021/08/07 08:21:47;;;;;;;7.65;2.25;;;;;;;12.79;87.59;89999.50;4996045;28;20398;-89
2021/08/07 08:24:24;;;;;;;4.95;2.05;;;;;;;12.89;87.99;89993.56;4980004;28;20022;-88
2021/08/07 08:27:02;;;;;;;6.50;2.40;;;;;;;12.87;88.13;89995.06;4996186;28;20022;-89
2021/08/07 08:29:30;;;;;;;8.43;2.72;;;;;;;12.92;88.68;89995.44;4979996;28;20402;-88
2021/08/07 08:32:13;;;;;;;5.35;2.47;;;;;;;12.87;88.32;89997.69;4995600;28;20037;-88
2021/08/07 08:34:47;;;;;;;8.05;2.10;;;;;;;12.84;87.85;90009.59;4981023;28;20026;-87
2021/08/07 08:37:31;;;;;;;6.47;2.70;;;;;;;12.92;86.84;89995.44;4996954;28;20026;-89
2021/08/07 08:40:08;;;;;;;4.35;1.73;;;;;;;13.10;81.88;89997.44;4997284;28;20033;-88
2021/08/07 08:42:44;;;;;;;3.05;1.92;;;;;;;13.17;82.51;89992.25;4980834;28;20029;-89
2021/08/07 08:45:23;;;;;;;5.28;2.90;;;;;;;13.46;86.89;90003.63;4995447;28;20025;-88
2021/08/07 08:48:01;;;;;;;8.55;3.45;;;;;;;13.38;85.31;90008.09;4980284;28;20129;-88
2021/08/07 08:50:39;;;;;;;6.22;2.70;;;;;;;13.46;85.18;90018.59;4979900;28;20403;-88
2021/08/07 08:53:18;;;;;;;5.22;2.92;;;;;;;13.64;86.37;90019.44;4995958;28;20034;-89
2021/08/07 08:55:57;;;;;;;4.18;2.03;;;;;;;13.45;82.22;90017.84;4980750;28;20301;-86
2021/08/07 08:58:35;;;;;;;5.13;2.38;;;;;;;13.27;83.66;90024.84;4980312;28;20041;-88
2021/08/07 09:01:20;;;;;;;5.70;2.28;;;;;;;13.31;80.70;90028.97;4995761;28;20100;-88
2021/08/07 09:03:59;;;;;;;6.55;2.50;;;;;;;13.38;82.95;90033.50;4980732;28;20076;-88
2021/08/07 09:06:34;;;;;;;5.40;1.70;;;;;;;13.38;77.92;90038.75;4978922;28;20025;-88
2021/08/07 09:09:16;;;;;;;6.22;1.88;;;;;;;13.35;79.35;90037.59;4979104;28;20025;-88
2021/08/07 09:11:58;;;;;;;3.70;1.73;;;;;;;13.27;80.69;90043.91;4995270;28;20037;-86
2021/08/07 09:14:36;;;;;;;3.95;1.70;;;;;;;13.36;80.47;90044.34;4995842;28;20398;-86
2021/08/07 09:17:13;;;;;;;4.40;2.03;;;;;;;13.42;81.29;90042.13;4981112;28;20026;-88
2021/08/07 09:19:58;;;;;;;2.90;1.45;;;;;;;13.56;80.36;90044.81;4996535;28;20049;-87
2021/08/07 09:22:37;;;;;;;4.25;1.80;;;;;;;13.69;79.48;90031.41;4996106;28;20028;-88
2021/08/07 09:25:23;;;;;;;4.93;1.90;;;;;;;13.71;79.44;90035.19;4980459;28;20417;-88
2021/08/07 09:27:59;;;;;;;7.25;3.95;;;;;;;13.77;80.37;90038.19;4995209;28;20060;-87
2021/08/07 09:30:43;;;;;;;5.30;2.67;;;;;;;13.79;80.84;90021.00;4977858;28;20049;-88
2021/08/07 09:33:36;;;;;;;4.55;2.28;;;;;;;13.85;80.03;90013.50;4979289;28;20022;-88
2021/08/07 09:36:18;;;;;;;4.05;2.40;;;;;;;13.94;79.35;90002.72;4979627;28;20088;-88
2021/08/07 09:38:55;;;;;;;7.45;2.85;;;;;;;14.13;77.10;90007.63;4995671;28;20021;-88
2021/08/07 09:41:30;;;;;;;5.03;2.60;;;;;;;13.98;75.63;90003.47;4994362;28;20405;-88
2021/08/07 09:44:09;;;;;;;6.88;3.13;;;;;;;13.99;76.66;89991.84;4979183;28;20036;-88
2021/08/07 09:46:44;;;;;;;9.18;2.50;;;;;;;14.11;78.25;89991.53;4978058;28;20065;-88
2021/08/07 09:49:32;;;;;;;5.75;2.60;;;;;;;14.16;78.71;89991.16;4979032;28;20500;-88
2021/08/07 09:52:14;;;;;;;7.60;2.65;;;;;;;14.21;78.26;89996.03;4963742;28;20029;-88
2021/08/07 09:54:51;;;;;;;8.30;3.75;;;;;;;14.13;78.37;89986.66;4979489;28;20101;-88
2021/08/07 09:57:44;;;;;;;9.43;2.78;;;;;;;14.17;79.28;89982.19;4982864;28;20053;-88
2021/08/07 10:00:23;;;;;;;5.78;2.35;;;;;;;14.23;74.46;89990.41;4977870;28;20053;-88
2021/08/07 10:02:54;;;;;;;7.22;2.17;;;;;;;14.09;76.17;89991.13;4975360;28;20030;-87
2021/08/07 10:05:34;;;;;;;7.15;2.65;;;;;;;14.14;77.52;89985.56;4977821;28;20025;-88
2021/08/07 10:08:10;;;;;;;5.05;2.00;;;;;;;14.16;77.94;89985.91;4995415;28;20029;-89
2021/08/07 10:10:45;;;;;;;5.32;1.80;;;;;;;14.23;79.06;89999.03;5031587;23;20038;-86
2021/08/07 10:13:26;;;;;;;3.67;1.67;;;;;;;14.50;80.44;89985.63;4993254;28;20036;-85
2021/08/07 10:16:05;;;;;;;3.85;1.90;;;;;;;14.64;79.61;89977.75;4961434;28;20026;-85
2021/08/07 10:18:40;;;;;;;3.88;1.60;;;;;;;14.69;79.94;89976.63;4977220;28;20471;-85
2021/08/07 10:21:17;;;;;;;5.82;1.70;;;;;;;14.78;74.15;89984.88;4960840;28;20491;-85
2021/08/07 10:23:59;;;;;;;4.32;1.52;;;;;;;14.87;76.41;89980.00;4961317;28;20097;-86
2021/08/07 10:26:39;;;;;;;5.82;1.70;;;;;;;14.91;75.42;89965.03;4961013;28;20027;-85
2021/08/07 10:29:19;;;;;;;7.18;2.20;;;;;;;14.98;75.45;89959.75;4976185;28;20022;-83
2021/08/07 10:31:54;;;;;;;4.40;2.00;;;;;;;15.07;76.83;89965.34;4944826;28;20030;-84
2021/08/07 10:34:34;;;;;;;3.47;1.33;;;;;;;15.15;75.00;89962.72;4960984;28;20046;-87
2021/08/07 10:37:13;;;;;;;4.18;1.83;;;;;;;14.97;71.71;89966.13;4962435;28;20055;-85
2021/08/07 10:39:49;;;;;;;4.18;1.90;;;;;;;14.63;72.44;89983.38;4980413;28;20034;-85
2021/08/07 10:42:27;;;;;;;3.33;1.70;;;;;;;14.55;72.75;89985.25;4949044;28;20082;-84
2021/08/07 10:44:58;;;;;;;4.45;1.50;;;;;;;14.50;71.41;89970.66;4965573;28;20022;-86
2021/08/07 10:47:38;;;;;;;3.10;1.35;;;;;;;14.71;71.43;89977.03;4949326;28;20446;-86
2021/08/07 10:50:30;;;;;;;2.17;1.50;;;;;;;14.52;74.79;89978.91;4964377;28;20118;-87
2021/08/07 10:53:20;;;;;;;5.15;1.30;;;;;;;14.76;73.65;89985.25;4980843;28;20079;-85
2021/08/07 10:55:59;;;;;;;4.30;1.70;;;;;;;14.71;70.44;89977.75;4981254;28;20026;-85
2021/08/07 10:58:48;;;;;;;2.85;1.30;;;;;;;14.57;68.16;89972.53;4981172;28;20026;-85
2021/08/07 11:01:29;;;;;;;4.05;1.50;;;;;;;14.54;72.41;89976.63;4981150;28;20026;-86
2021/08/07 11:04:11;;;;;;;4.53;1.25;;;;;;;14.18;69.61;89978.44;4997619;28;20441;-87
2021/08/07 11:06:52;;;;;;;2.10;1.20;;;;;;;14.01;70.20;89966.06;4998718;28;20034;-87
2021/08/07 11:09:41;;;;;;;2.83;1.30;;;;;;;13.94;71.51;89971.28;4997333;28;20037;-86
2021/08/07 11:12:20;;;;;;;2.83;1.20;;;;;;;13.71;72.29;89961.09;4981168;28;20418;-87
2021/08/07 11:15:00;;;;;;;3.17;1.23;;;;;;;13.70;72.88;89959.59;4999631;28;20478;-86
2021/08/07 11:17:33;;;;;;;3.35;1.70;;;;;;;13.70;72.38;89949.88;4998048;28;20053;-86
2021/08/07 11:20:11;;;;;;;1.92;1.23;;;;;;;13.68;73.40;89946.91;4998244;28;20033;-86
2021/08/07 11:22:47;;;;;;;4.22;1.35;;;;;;;13.56;73.24;89957.69;4998872;28;20109;-86
2021/08/07 11:25:24;;;;;;;2.92;1.40;;;;;;;13.59;72.99;89959.56;4999559;28;20053;-86
2021/08/07 11:28:06;;;;;;;2.85;1.70;;;;;;;13.57;73.22;89969.69;4981846;28;20109;-87
2021/08/07 11:30:44;;;;;;;1.95;1.15;;;;;;;13.49;73.66;89953.19;4966229;28;20122;-86
2021/08/07 11:33:26;;;;;;;2.95;1.20;;;;;;;13.68;73.03;89988.78;4983637;28;20022;-87
2021/08/07 11:36:06;;;;;;;4.43;1.40;;;;;;;13.44;76.53;89987.56;4991195;28;20022;-86
2021/08/07 11:39:05;;;;;;;3.28;1.10;;;;;;;13.39;73.42;89967.72;4980501;28;20045;-84
2021/08/07 11:41:38;;;;;;;3.22;1.33;;;;;;;13.37;74.86;89975.19;4947193;28;20026;-85
2021/08/07 11:44:20;;;;;;;2.50;1.20;;;;;;;13.31;74.58;89976.66;4963524;28;20072;-85
2021/08/07 11:47:00;;;;;;;3.97;1.30;;;;;;;13.36;75.40;89970.34;4963644;28;20109;-85
2021/08/07 11:49:39;;;;;;;4.03;1.30;;;;;;;13.34;77.96;89954.25;4962147;28;20558;-84
2021/08/07 11:52:15;;;;;;;3.83;1.58;;;;;;;13.34;79.52;89975.91;4963572;28;20494;-85
2021/08/07 11:54:59;;;;;;;4.22;1.30;;;;;;;13.27;79.93;89970.66;4946860;28;20080;-84
2021/08/07 11:57:37;;;;;;;4.07;1.70;;;;;;;13.20;78.90;89986.28;4964110;28;20026;-85
2021/08/07 12:00:28;;;;;;;2.10;1.25;;;;;;;13.07;78.06;89998.94;4963087;28;20426;-84
2021/08/07 12:03:08;;;;;;;2.60;1.40;;;;;;;13.10;79.72;90013.13;4963682;28;20026;-84
2021/08/07 12:06:04;;;;;;;3.13;1.40;;;;;;;13.04;78.57;90011.97;4979026;28;20026;-84
2021/08/07 12:08:39;;;;;;;1.42;0.88;;;;;;;12.85;78.69;90000.63;4980726;28;20030;-86
2021/08/07 12:11:14;;;;;;;2.17;1.35;;;;;;;12.82;79.14;90011.81;4962617;28;20033;-85
2021/08/07 12:13:57;;;;;;;2.20;1.20;;;;;;;12.68;79.04;90009.09;4947053;28;20499;-85
2021/08/07 12:16:44;;;;;;;2.75;1.20;;;;;;;12.53;80.65;89986.59;4978583;28;20085;-85
2021/08/07 12:19:22;;;;;;;2.33;1.33;;;;;;;12.46;81.57;89986.53;4964241;28;20030;-85
2021/08/07 12:22:00;;;;;;;1.73;0.90;;;;;;;12.38;81.46;89981.25;4961905;28;20030;-84
2021/08/07 12:24:38;;;;;;;1.92;0.95;;;;;;;12.40;81.50;89976.41;4977952;28;20030;-84
2021/08/07 12:27:13;;;;;;;1.65;0.85;;;;;;;12.27;82.91;89980.41;4963878;28;20034;-84
2021/08/07 12:29:53;;;;;;;1.67;0.82;;;;;;;12.34;82.93;89980.47;4977720;28;20050;-83